sensor_id;sensor_type;location;lat;lon;timestamp;temperature;humidity
12761;DHT22;6444;49.742;6.114;2023-07-13T00:00:21;16.90;99.90
12761;DHT22;6444;49.742;6.114;2023-07-13T00:02:48;17.30;99.90
12761;DHT22;6444;49.742;6.114;2023-07-13T00:05:15;17.30;99.90
12761;DHT22;6444;49.742;6.114;2023-07-13T00:07:41;17.90;99.90
12761;DHT22;6444;49.742;6.114;2023-07-13T00:10:08;18.70;99.90
12761;DHT22;6444;49.742;6.114;2023-07-13T00:12:36;19.10;99.90
12761;DHT22;6444;49.742;6.114;2023-07-13T00:15:04;19.10;99.90
12761;DHT22;6444;49.742;6.114;2023-07-13T00:17:29;18.90;99.90
12761;DHT22;6444;49.742;6.114;2023-07-13T00:19:56;19.40;99.90
12761;DHT22;6444;49.742;6.114;2023-07-13T00:22:22;19.80;99.90
12761;DHT22;6444;49.742;6.114;2023-07-13T00:24:49;19.70;99.90
12761;DHT22;6444;49.742;6.114;2023-07-13T00:27:15;19.80;99.90
12761;DHT22;6444;49.742;6.114;2023-07-13T00:29:42;19.40;99.90
12761;DHT22;6444;49.742;6.114;2023-07-13T00:32:08;18.80;99.90
12761;DHT22;6444;49.742;6.114;2023-07-13T00:34:35;19.10;99.90
12761;DHT22;6444;49.742;6.114;2023-07-13T00:37:02;19.50;99.90
12761;DHT22;6444;49.742;6.114;2023-07-13T00:39:28;18.30;99.90
12761;DHT22;6444;49.742;6.114;2023-07-13T00:41:55;18.40;99.90
12761;DHT22;6444;49.742;6.114;2023-07-13T00:44:22;18.80;99.90
12761;DHT22;6444;49.742;6.114;2023-07-13T00:46:48;19.20;99.90
12761;DHT22;6444;49.742;6.114;2023-07-13T00:49:17;19.80;99.90
12761;DHT22;6444;49.742;6.114;2023-07-13T00:51:44;19.70;99.90
12761;DHT22;6444;49.742;6.114;2023-07-13T00:54:10;19.80;99.90
12761;DHT22;6444;49.742;6.114;2023-07-13T00:56:36;19.80;99.90
12761;DHT22;6444;49.742;6.114;2023-07-13T00:59:02;19.40;99.90
12761;DHT22;6444;49.742;6.114;2023-07-13T01:01:30;19.50;99.90
12761;DHT22;6444;49.742;6.114;2023-07-13T01:03:56;19.40;99.90
12761;DHT22;6444;49.742;6.114;2023-07-13T01:06:23;19.30;99.90
12761;DHT22;6444;49.742;6.114;2023-07-13T01:08:50;19.30;99.90
12761;DHT22;6444;49.742;6.114;2023-07-13T01:11:20;19.40;99.90
12761;DHT22;6444;49.742;6.114;2023-07-13T01:13:46;19.30;99.90
12761;DHT22;6444;49.742;6.114;2023-07-13T01:16:25;19.30;99.90
12761;DHT22;6444;49.742;6.114;2023-07-13T01:18:42;19.10;99.90
12761;DHT22;6444;49.742;6.114;2023-07-13T01:21:09;19.00;99.90
12761;DHT22;6444;49.742;6.114;2023-07-13T01:23:36;19.70;99.90
12761;DHT22;6444;49.742;6.114;2023-07-13T01:26:03;19.60;99.90
12761;DHT22;6444;49.742;6.114;2023-07-13T01:28:29;19.80;99.90
12761;DHT22;6444;49.742;6.114;2023-07-13T01:30:57;20.00;99.90
12761;DHT22;6444;49.742;6.114;2023-07-13T01:33:23;19.90;99.90
12761;DHT22;6444;49.742;6.114;2023-07-13T01:35:49;19.60;99.90
12761;DHT22;6444;49.742;6.114;2023-07-13T01:38:16;19.00;99.90
12761;DHT22;6444;49.742;6.114;2023-07-13T01:40:42;18.60;99.90
12761;DHT22;6444;49.742;6.114;2023-07-13T01:52:24;19.30;99.90
12761;DHT22;6444;49.742;6.114;2023-07-13T01:54:50;19.30;99.90
12761;DHT22;6444;49.742;6.114;2023-07-13T01:57:17;19.30;99.90
12761;DHT22;6444;49.742;6.114;2023-07-13T01:59:43;19.30;99.90
12761;DHT22;6444;49.742;6.114;2023-07-13T02:02:11;19.70;99.90
12761;DHT22;6444;49.742;6.114;2023-07-13T02:04:37;19.60;99.90
12761;DHT22;6444;49.742;6.114;2023-07-13T02:07:04;19.70;99.90
12761;DHT22;6444;49.742;6.114;2023-07-13T02:09:32;19.00;99.90
12761;DHT22;6444;49.742;6.114;2023-07-13T02:11:58;19.00;99.90
12761;DHT22;6444;49.742;6.114;2023-07-13T02:14:25;18.10;99.90
12761;DHT22;6444;49.742;6.114;2023-07-13T02:16:52;18.00;99.90
12761;DHT22;6444;49.742;6.114;2023-07-13T02:19:19;17.20;99.90
12761;DHT22;6444;49.742;6.114;2023-07-13T02:21:46;17.10;99.90
12761;DHT22;6444;49.742;6.114;2023-07-13T02:24:12;17.90;99.90
12761;DHT22;6444;49.742;6.114;2023-07-13T02:26:39;18.50;99.90
12761;DHT22;6444;49.742;6.114;2023-07-13T02:29:06;18.30;99.90
12761;DHT22;6444;49.742;6.114;2023-07-13T02:31:33;18.40;99.90
12761;DHT22;6444;49.742;6.114;2023-07-13T02:34:00;18.40;99.90
12761;DHT22;6444;49.742;6.114;2023-07-13T02:36:26;18.80;99.90
12761;DHT22;6444;49.742;6.114;2023-07-13T02:38:53;19.00;99.90
12761;DHT22;6444;49.742;6.114;2023-07-13T02:41:19;19.00;99.90
12761;DHT22;6444;49.742;6.114;2023-07-13T02:43:47;19.20;99.90
12761;DHT22;6444;49.742;6.114;2023-07-13T02:46:13;19.10;99.90
12761;DHT22;6444;49.742;6.114;2023-07-13T02:48:40;18.90;99.90
12761;DHT22;6444;49.742;6.114;2023-07-13T02:51:07;18.70;99.90
12761;DHT22;6444;49.742;6.114;2023-07-13T02:53:33;18.50;99.90
12761;DHT22;6444;49.742;6.114;2023-07-13T02:56:01;18.60;99.90
12761;DHT22;6444;49.742;6.114;2023-07-13T02:58:27;18.50;99.90
12761;DHT22;6444;49.742;6.114;2023-07-13T03:00:55;18.70;99.90
12761;DHT22;6444;49.742;6.114;2023-07-13T03:03:21;18.90;99.90
12761;DHT22;6444;49.742;6.114;2023-07-13T03:05:47;18.60;99.90
12761;DHT22;6444;49.742;6.114;2023-07-13T03:08:15;18.80;99.90
12761;DHT22;6444;49.742;6.114;2023-07-13T03:10:41;18.80;99.90
12761;DHT22;6444;49.742;6.114;2023-07-13T03:13:08;18.90;99.90
12761;DHT22;6444;49.742;6.114;2023-07-13T03:15:34;18.90;99.90
12761;DHT22;6444;49.742;6.114;2023-07-13T03:18:01;18.90;99.90
12761;DHT22;6444;49.742;6.114;2023-07-13T03:20:31;18.50;99.90
12761;DHT22;6444;49.742;6.114;2023-07-13T03:22:55;18.40;99.90
12761;DHT22;6444;49.742;6.114;2023-07-13T03:25:23;18.10;99.90
12761;DHT22;6444;49.742;6.114;2023-07-13T03:27:49;18.00;99.90
12761;DHT22;6444;49.742;6.114;2023-07-13T03:30:16;18.40;99.90
12761;DHT22;6444;49.742;6.114;2023-07-13T03:32:42;18.50;99.90
12761;DHT22;6444;49.742;6.114;2023-07-13T03:35:10;18.40;99.90
12761;DHT22;6444;49.742;6.114;2023-07-13T03:37:37;18.40;99.90
12761;DHT22;6444;49.742;6.114;2023-07-13T03:40:03;18.10;99.90
12761;DHT22;6444;49.742;6.114;2023-07-13T03:42:30;17.30;99.90
12761;DHT22;6444;49.742;6.114;2023-07-13T03:44:57;17.30;99.90
12761;DHT22;6444;49.742;6.114;2023-07-13T03:47:23;16.60;99.90
12761;DHT22;6444;49.742;6.114;2023-07-13T03:49:50;16.40;99.90
12761;DHT22;6444;49.742;6.114;2023-07-13T03:52:16;15.90;99.90
12761;DHT22;6444;49.742;6.114;2023-07-13T03:54:44;16.70;99.90
12761;DHT22;6444;49.742;6.114;2023-07-13T03:57:10;16.70;99.90
12761;DHT22;6444;49.742;6.114;2023-07-13T03:59:37;17.40;99.90
12761;DHT22;6444;49.742;6.114;2023-07-13T04:02:04;17.90;99.90
12761;DHT22;6444;49.742;6.114;2023-07-13T04:04:30;18.00;99.90
12761;DHT22;6444;49.742;6.114;2023-07-13T04:06:57;18.20;99.90
12761;DHT22;6444;49.742;6.114;2023-07-13T04:09:24;18.20;99.90
12761;DHT22;6444;49.742;6.114;2023-07-13T04:11:50;18.20;99.90
12761;DHT22;6444;49.742;6.114;2023-07-13T04:14:17;17.90;99.90
12761;DHT22;6444;49.742;6.114;2023-07-13T04:16:44;18.20;99.90
12761;DHT22;6444;49.742;6.114;2023-07-13T04:19:13;18.20;99.90
12761;DHT22;6444;49.742;6.114;2023-07-13T04:21:37;18.20;99.90
12761;DHT22;6444;49.742;6.114;2023-07-13T04:24:04;17.70;99.90
12761;DHT22;6444;49.742;6.114;2023-07-13T04:26:31;17.70;99.90
12761;DHT22;6444;49.742;6.114;2023-07-13T04:28:57;17.20;99.90
12761;DHT22;6444;49.742;6.114;2023-07-13T04:31:24;17.30;99.90
12761;DHT22;6444;49.742;6.114;2023-07-13T04:33:51;17.50;99.90
12761;DHT22;6444;49.742;6.114;2023-07-13T04:36:17;17.80;99.90
12761;DHT22;6444;49.742;6.114;2023-07-13T04:38:44;17.90;99.90
12761;DHT22;6444;49.742;6.114;2023-07-13T04:41:12;17.60;99.90
12761;DHT22;6444;49.742;6.114;2023-07-13T04:43:37;17.60;99.90
12761;DHT22;6444;49.742;6.114;2023-07-13T04:46:05;17.90;99.90
12761;DHT22;6444;49.742;6.114;2023-07-13T04:48:31;18.30;99.90
12761;DHT22;6444;49.742;6.114;2023-07-13T04:50:58;18.70;99.90
12761;DHT22;6444;49.742;6.114;2023-07-13T04:53:25;18.60;99.90
12761;DHT22;6444;49.742;6.114;2023-07-13T04:55:51;18.70;99.90
12761;DHT22;6444;49.742;6.114;2023-07-13T04:58:18;18.70;99.90
12761;DHT22;6444;49.742;6.114;2023-07-13T05:00:44;18.70;99.90
12761;DHT22;6444;49.742;6.114;2023-07-13T05:03:11;19.40;99.90
12761;DHT22;6444;49.742;6.114;2023-07-13T05:05:38;21.30;99.90
12761;DHT22;6444;49.742;6.114;2023-07-13T05:08:05;21.30;99.90
12761;DHT22;6444;49.742;6.114;2023-07-13T05:10:32;21.50;99.90
12761;DHT22;6444;49.742;6.114;2023-07-13T05:12:58;22.90;99.90
12761;DHT22;6444;49.742;6.114;2023-07-13T05:15:25;25.00;99.90
12761;DHT22;6444;49.742;6.114;2023-07-13T05:17:52;26.40;97.50
12761;DHT22;6444;49.742;6.114;2023-07-13T05:20:19;25.50;95.40
12761;DHT22;6444;49.742;6.114;2023-07-13T05:22:46;25.30;95.30
12761;DHT22;6444;49.742;6.114;2023-07-13T05:25:15;24.80;97.50
12761;DHT22;6444;49.742;6.114;2023-07-13T05:27:42;25.10;95.70
12761;DHT22;6444;49.742;6.114;2023-07-13T05:30:08;24.20;97.10
12761;DHT22;6444;49.742;6.114;2023-07-13T05:32:35;25.00;97.30
12761;DHT22;6444;49.742;6.114;2023-07-13T05:35:02;26.00;95.70
12761;DHT22;6444;49.742;6.114;2023-07-13T05:37:28;26.80;95.00
12761;DHT22;6444;49.742;6.114;2023-07-13T05:39:56;29.00;91.80
12761;DHT22;6444;49.742;6.114;2023-07-13T05:42:22;28.80;91.70
12761;DHT22;6444;49.742;6.114;2023-07-13T05:44:49;28.60;91.20
12761;DHT22;6444;49.742;6.114;2023-07-13T05:47:15;28.30;91.00
12761;DHT22;6444;49.742;6.114;2023-07-13T05:49:42;27.00;91.60
12761;DHT22;6444;49.742;6.114;2023-07-13T05:52:10;27.40;92.40
12761;DHT22;6444;49.742;6.114;2023-07-13T05:54:36;27.40;92.40
12761;DHT22;6444;49.742;6.114;2023-07-13T05:57:03;29.60;90.90
12761;DHT22;6444;49.742;6.114;2023-07-13T05:59:29;30.70;85.00
12761;DHT22;6444;49.742;6.114;2023-07-13T06:01:56;30.00;88.70
12761;DHT22;6444;49.742;6.114;2023-07-13T06:04:23;31.40;84.90
12761;DHT22;6444;49.742;6.114;2023-07-13T06:06:49;33.30;82.70
12761;DHT22;6444;49.742;6.114;2023-07-13T06:09:16;34.60;78.60
12761;DHT22;6444;49.742;6.114;2023-07-13T06:11:43;34.70;73.00
12761;DHT22;6444;49.742;6.114;2023-07-13T06:14:09;32.80;78.80
12761;DHT22;6444;49.742;6.114;2023-07-13T06:16:36;33.40;75.20
12761;DHT22;6444;49.742;6.114;2023-07-13T06:19:02;33.90;73.60
12761;DHT22;6444;49.742;6.114;2023-07-13T06:21:30;31.20;77.80
12761;DHT22;6444;49.742;6.114;2023-07-13T06:23:56;31.10;77.60
12761;DHT22;6444;49.742;6.114;2023-07-13T06:26:23;31.00;81.60
12761;DHT22;6444;49.742;6.114;2023-07-13T06:28:50;31.80;77.50
12761;DHT22;6444;49.742;6.114;2023-07-13T06:31:16;31.00;77.60
12761;DHT22;6444;49.742;6.114;2023-07-13T06:33:44;29.10;83.30
12761;DHT22;6444;49.742;6.114;2023-07-13T06:36:10;29.00;83.20
12761;DHT22;6444;49.742;6.114;2023-07-13T06:38:37;30.40;81.10
12761;DHT22;6444;49.742;6.114;2023-07-13T06:41:04;31.00;79.60
12761;DHT22;6444;49.742;6.114;2023-07-13T06:43:31;33.30;77.40
12761;DHT22;6444;49.742;6.114;2023-07-13T06:45:58;33.20;76.90
12761;DHT22;6444;49.742;6.114;2023-07-13T06:48:24;30.70;78.40
12761;DHT22;6444;49.742;6.114;2023-07-13T06:50:51;29.70;81.00
12761;DHT22;6444;49.742;6.114;2023-07-13T06:53:18;32.00;79.40
12761;DHT22;6444;49.742;6.114;2023-07-13T06:55:44;34.60;73.90
12761;DHT22;6444;49.742;6.114;2023-07-13T06:58:12;36.80;69.30
12761;DHT22;6444;49.742;6.114;2023-07-13T07:00:38;36.70;69.20
12761;DHT22;6444;49.742;6.114;2023-07-13T07:03:05;37.50;66.90
12761;DHT22;6444;49.742;6.114;2023-07-13T07:05:31;38.40;64.90
12761;DHT22;6444;49.742;6.114;2023-07-13T07:07:58;39.00;63.20
12761;DHT22;6444;49.742;6.114;2023-07-13T07:10:25;38.90;62.00
12761;DHT22;6444;49.742;6.114;2023-07-13T07:12:52;39.10;61.10
12761;DHT22;6444;49.742;6.114;2023-07-13T07:15:19;39.00;61.10
12761;DHT22;6444;49.742;6.114;2023-07-13T07:17:45;39.80;58.50
12761;DHT22;6444;49.742;6.114;2023-07-13T07:20:12;38.60;61.70
12761;DHT22;6444;49.742;6.114;2023-07-13T07:22:39;34.30;63.00
12761;DHT22;6444;49.742;6.114;2023-07-13T07:25:06;34.20;63.00
12761;DHT22;6444;49.742;6.114;2023-07-13T07:27:33;34.90;63.90
12761;DHT22;6444;49.742;6.114;2023-07-13T07:29:59;35.70;65.20
12761;DHT22;6444;49.742;6.114;2023-07-13T07:32:28;34.20;65.60
12761;DHT22;6444;49.742;6.114;2023-07-13T07:34:53;33.60;66.60
12761;DHT22;6444;49.742;6.114;2023-07-13T07:37:19;34.30;66.10
12761;DHT22;6444;49.742;6.114;2023-07-13T07:39:46;34.70;63.90
12761;DHT22;6444;49.742;6.114;2023-07-13T07:42:13;35.00;64.80
12761;DHT22;6444;49.742;6.114;2023-07-13T07:44:40;36.50;64.10
12761;DHT22;6444;49.742;6.114;2023-07-13T07:47:06;35.90;64.30
12761;DHT22;6444;49.742;6.114;2023-07-13T07:49:32;37.60;61.30
12761;DHT22;6444;49.742;6.114;2023-07-13T07:51:59;38.30;61.40
12761;DHT22;6444;49.742;6.114;2023-07-13T07:54:26;39.40;59.90
12761;DHT22;6444;49.742;6.114;2023-07-13T07:56:52;39.00;58.50
12761;DHT22;6444;49.742;6.114;2023-07-13T07:59:19;38.10;59.30
12761;DHT22;6444;49.742;6.114;2023-07-13T08:01:46;36.10;61.20
12761;DHT22;6444;49.742;6.114;2023-07-13T08:04:13;35.20;63.00
12761;DHT22;6444;49.742;6.114;2023-07-13T08:06:40;35.10;62.70
12761;DHT22;6444;49.742;6.114;2023-07-13T08:09:06;36.00;61.90
12761;DHT22;6444;49.742;6.114;2023-07-13T08:11:33;37.80;58.70
12761;DHT22;6444;49.742;6.114;2023-07-13T08:13:59;38.50;56.80
12761;DHT22;6444;49.742;6.114;2023-07-13T08:16:26;38.00;60.00
12761;DHT22;6444;49.742;6.114;2023-07-13T08:18:53;39.60;56.20
12761;DHT22;6444;49.742;6.114;2023-07-13T08:21:19;39.00;54.90
12761;DHT22;6444;49.742;6.114;2023-07-13T08:23:46;38.70;57.90
12761;DHT22;6444;49.742;6.114;2023-07-13T08:26:13;35.60;59.00
12761;DHT22;6444;49.742;6.114;2023-07-13T08:28:40;35.50;58.80
12761;DHT22;6444;49.742;6.114;2023-07-13T08:31:07;34.80;59.60
12761;DHT22;6444;49.742;6.114;2023-07-13T08:33:34;37.30;57.40
12761;DHT22;6444;49.742;6.114;2023-07-13T08:36:00;36.50;59.20
12761;DHT22;6444;49.742;6.114;2023-07-13T08:38:27;34.80;58.00
12761;DHT22;6444;49.742;6.114;2023-07-13T08:40:55;34.70;57.90
12761;DHT22;6444;49.742;6.114;2023-07-13T08:43:24;35.60;60.80
12761;DHT22;6444;49.742;6.114;2023-07-13T08:45:52;36.50;57.60
12761;DHT22;6444;49.742;6.114;2023-07-13T08:48:18;38.10;56.10
12761;DHT22;6444;49.742;6.114;2023-07-13T08:50:57;38.00;56.60
12761;DHT22;6444;49.742;6.114;2023-07-13T08:53:23;38.50;56.10
12761;DHT22;6444;49.742;6.114;2023-07-13T08:55:50;38.50;53.70
12761;DHT22;6444;49.742;6.114;2023-07-13T08:58:16;37.80;55.90
12761;DHT22;6444;49.742;6.114;2023-07-13T09:00:55;36.30;55.90
12761;DHT22;6444;49.742;6.114;2023-07-13T09:03:20;36.50;58.10
12761;DHT22;6444;49.742;6.114;2023-07-13T09:05:46;36.50;58.00
12761;DHT22;6444;49.742;6.114;2023-07-13T09:16:30;39.00;53.40
12761;DHT22;6444;49.742;6.114;2023-07-13T09:18:59;37.80;55.80
12761;DHT22;6444;49.742;6.114;2023-07-13T09:21:39;37.90;55.10
12761;DHT22;6444;49.742;6.114;2023-07-13T09:24:51;38.00;56.00
12761;DHT22;6444;49.742;6.114;2023-07-13T09:26:28;38.40;53.90
12761;DHT22;6444;49.742;6.114;2023-07-13T09:29:13;36.60;56.20
12761;DHT22;6444;49.742;6.114;2023-07-13T09:31:39;36.50;56.10
12761;DHT22;6444;49.742;6.114;2023-07-13T09:34:09;37.30;56.50
12761;DHT22;6444;49.742;6.114;2023-07-13T09:36:33;37.20;56.30
12761;DHT22;6444;49.742;6.114;2023-07-13T09:39:10;38.40;54.70
12761;DHT22;6444;49.742;6.114;2023-07-13T09:41:49;38.30;54.60
12761;DHT22;6444;49.742;6.114;2023-07-13T09:44:15;38.80;53.40
12761;DHT22;6444;49.742;6.114;2023-07-13T09:46:44;38.30;53.70
12761;DHT22;6444;49.742;6.114;2023-07-13T09:49:10;38.00;55.40
12761;DHT22;6444;49.742;6.114;2023-07-13T09:51:39;38.50;55.60
12761;DHT22;6444;49.742;6.114;2023-07-13T09:54:03;38.30;55.30
12761;DHT22;6444;49.742;6.114;2023-07-13T09:56:30;38.30;53.40
12761;DHT22;6444;49.742;6.114;2023-07-13T09:58:57;37.50;55.70
12761;DHT22;6444;49.742;6.114;2023-07-13T10:01:36;36.90;54.30
12761;DHT22;6444;49.742;6.114;2023-07-13T10:04:10;30.70;61.90
12761;DHT22;6444;49.742;6.114;2023-07-13T10:06:29;30.50;61.60
12761;DHT22;6444;49.742;6.114;2023-07-13T10:08:56;30.10;67.60
12761;DHT22;6444;49.742;6.114;2023-07-13T10:11:24;30.40;62.60
12761;DHT22;6444;49.742;6.114;2023-07-13T10:14:17;29.60;65.50
12761;DHT22;6444;49.742;6.114;2023-07-13T10:16:40;28.80;67.90
12761;DHT22;6444;49.742;6.114;2023-07-13T10:19:09;30.00;66.30
12761;DHT22;6444;49.742;6.114;2023-07-13T10:21:55;32.00;61.70
12761;DHT22;6444;49.742;6.114;2023-07-13T10:24:22;32.80;59.60
12761;DHT22;6444;49.742;6.114;2023-07-13T10:27:18;33.90;58.30
12761;DHT22;6444;49.742;6.114;2023-07-13T10:32:14;32.90;58.70
12761;DHT22;6444;49.742;6.114;2023-07-13T10:34:43;30.20;62.80
12761;DHT22;6444;49.742;6.114;2023-07-13T10:37:11;30.50;63.40
12761;DHT22;6444;49.742;6.114;2023-07-13T10:39:35;30.50;63.30
12761;DHT22;6444;49.742;6.114;2023-07-13T10:42:03;31.10;63.30
12761;DHT22;6444;49.742;6.114;2023-07-13T10:44:30;30.80;64.30
12761;DHT22;6444;49.742;6.114;2023-07-13T10:47:01;31.60;62.20
12761;DHT22;6444;49.742;6.114;2023-07-13T10:49:24;31.70;61.70
12761;DHT22;6444;49.742;6.114;2023-07-13T10:51:51;31.20;64.00
12761;DHT22;6444;49.742;6.114;2023-07-13T10:54:22;31.20;64.00
12761;DHT22;6444;49.742;6.114;2023-07-13T10:56:52;31.00;62.60
12761;DHT22;6444;49.742;6.114;2023-07-13T10:59:18;30.30;64.20
12761;DHT22;6444;49.742;6.114;2023-07-13T11:01:51;31.00;65.20
12761;DHT22;6444;49.742;6.114;2023-07-13T11:04:16;32.00;60.80
12761;DHT22;6444;49.742;6.114;2023-07-13T11:06:43;32.00;60.70
12761;DHT22;6444;49.742;6.114;2023-07-13T11:09:30;31.40;59.80
12761;DHT22;6444;49.742;6.114;2023-07-13T11:11:56;28.80;65.20
12761;DHT22;6444;49.742;6.114;2023-07-13T11:14:34;28.90;65.00
12761;DHT22;6444;49.742;6.114;2023-07-13T11:16:57;28.10;67.80
12761;DHT22;6444;49.742;6.114;2023-07-13T11:19:26;28.00;67.00
12761;DHT22;6444;49.742;6.114;2023-07-13T11:27:41;27.40;69.40
12761;DHT22;6444;49.742;6.114;2023-07-13T11:30:31;27.80;69.50
12761;DHT22;6444;49.742;6.114;2023-07-13T11:32:52;27.70;69.40
12761;DHT22;6444;49.742;6.114;2023-07-13T11:35:22;28.30;69.10
12761;DHT22;6444;49.742;6.114;2023-07-13T11:37:45;29.40;67.90
12761;DHT22;6444;49.742;6.114;2023-07-13T11:40:12;30.90;63.80
12761;DHT22;6444;49.742;6.114;2023-07-13T11:42:38;30.80;64.40
12761;DHT22;6444;49.742;6.114;2023-07-13T11:45:12;31.60;63.80
12761;DHT22;6444;49.742;6.114;2023-07-13T11:47:31;31.10;64.00
12761;DHT22;6444;49.742;6.114;2023-07-13T11:49:58;30.10;64.10
12761;DHT22;6444;49.742;6.114;2023-07-13T11:52:32;28.20;69.30
12761;DHT22;6444;49.742;6.114;2023-07-13T11:54:55;28.50;66.80
12761;DHT22;6444;49.742;6.114;2023-07-13T11:59:55;28.70;67.30
12761;DHT22;6444;49.742;6.114;2023-07-13T12:02:35;29.30;65.90
12761;DHT22;6444;49.742;6.114;2023-07-13T12:05:00;29.10;67.00
12761;DHT22;6444;49.742;6.114;2023-07-13T12:07:28;28.50;67.20
12761;DHT22;6444;49.742;6.114;2023-07-13T12:09:53;28.10;66.60
12761;DHT22;6444;49.742;6.114;2023-07-13T12:12:21;27.70;68.00
12761;DHT22;6444;49.742;6.114;2023-07-13T12:14:51;26.20;73.40
12761;DHT22;6444;49.742;6.114;2023-07-13T12:17:20;26.10;73.20
12761;DHT22;6444;49.742;6.114;2023-07-13T12:19:47;26.30;73.30
12761;DHT22;6444;49.742;6.114;2023-07-13T12:22:13;26.30;73.80
12761;DHT22;6444;49.742;6.114;2023-07-13T12:24:42;26.90;72.70
12761;DHT22;6444;49.742;6.114;2023-07-13T12:27:19;26.60;72.30
12761;DHT22;6444;49.742;6.114;2023-07-13T12:30:04;27.60;72.00
12761;DHT22;6444;49.742;6.114;2023-07-13T12:32:29;28.70;68.30
12761;DHT22;6444;49.742;6.114;2023-07-13T12:35:03;28.00;70.80
12761;DHT22;6444;49.742;6.114;2023-07-13T12:37:23;27.00;71.00
12761;DHT22;6444;49.742;6.114;2023-07-13T12:39:49;26.30;71.80
12761;DHT22;6444;49.742;6.114;2023-07-13T12:42:30;26.50;72.40
12761;DHT22;6444;49.742;6.114;2023-07-13T12:45:02;26.50;72.30
12761;DHT22;6444;49.742;6.114;2023-07-13T12:47:27;26.70;72.30
12761;DHT22;6444;49.742;6.114;2023-07-13T12:49:58;26.10;72.70
12761;DHT22;6444;49.742;6.114;2023-07-13T12:52:28;25.70;73.50
12761;DHT22;6444;49.742;6.114;2023-07-13T12:55:04;26.20;73.30
12761;DHT22;6444;49.742;6.114;2023-07-13T12:57:25;26.60;72.30
12761;DHT22;6444;49.742;6.114;2023-07-13T12:59:53;25.50;74.60
12761;DHT22;6444;49.742;6.114;2023-07-13T13:02:32;25.10;77.00
12761;DHT22;6444;49.742;6.114;2023-07-13T13:04:58;26.90;73.00
12761;DHT22;6444;49.742;6.114;2023-07-13T13:07:25;26.90;73.00
12761;DHT22;6444;49.742;6.114;2023-07-13T13:09:51;26.60;73.10
12761;DHT22;6444;49.742;6.114;2023-07-13T13:12:18;25.50;75.80
12761;DHT22;6444;49.742;6.114;2023-07-13T13:14:45;25.50;75.40
12761;DHT22;6444;49.742;6.114;2023-07-13T13:17:25;26.50;73.90
12761;DHT22;6444;49.742;6.114;2023-07-13T13:19:42;26.40;73.80
12761;DHT22;6444;49.742;6.114;2023-07-13T13:22:08;26.90;73.10
12761;DHT22;6444;49.742;6.114;2023-07-13T13:24:35;27.70;73.30
12761;DHT22;6444;49.742;6.114;2023-07-13T13:27:02;27.90;72.50
12761;DHT22;6444;49.742;6.114;2023-07-13T13:29:30;27.80;72.00
12761;DHT22;6444;49.742;6.114;2023-07-13T13:31:56;28.00;71.70
12761;DHT22;6444;49.742;6.114;2023-07-13T13:34:23;26.90;72.70
12761;DHT22;6444;49.742;6.114;2023-07-13T13:36:49;27.30;72.80
12761;DHT22;6444;49.742;6.114;2023-07-13T13:39:27;28.30;71.60
12761;DHT22;6444;49.742;6.114;2023-07-13T13:41:52;29.20;70.70
12761;DHT22;6444;49.742;6.114;2023-07-13T13:44:18;28.80;69.10
12761;DHT22;6444;49.742;6.114;2023-07-13T13:46:45;27.50;73.00
12761;DHT22;6444;49.742;6.114;2023-07-13T13:49:17;27.20;74.80
12761;DHT22;6444;49.742;6.114;2023-07-13T13:51:44;27.40;73.30
12761;DHT22;6444;49.742;6.114;2023-07-13T13:54:14;27.30;73.20
12761;DHT22;6444;49.742;6.114;2023-07-13T13:56:43;26.90;73.80
12761;DHT22;6444;49.742;6.114;2023-07-13T13:59:09;26.30;75.60
12761;DHT22;6444;49.742;6.114;2023-07-13T14:01:36;26.30;76.60
12761;DHT22;6444;49.742;6.114;2023-07-13T14:04:03;26.00;77.00
12761;DHT22;6444;49.742;6.114;2023-07-13T14:08:59;26.50;74.00
12761;DHT22;6444;49.742;6.114;2023-07-13T14:11:25;27.00;73.90
12761;DHT22;6444;49.742;6.114;2023-07-13T14:13:56;27.10;72.30
12761;DHT22;6444;49.742;6.114;2023-07-13T14:16:20;26.90;73.00
12761;DHT22;6444;49.742;6.114;2023-07-13T14:18:46;26.80;72.70
12761;DHT22;6444;49.742;6.114;2023-07-13T14:21:16;26.60;72.80
12761;DHT22;6444;49.742;6.114;2023-07-13T14:23:39;27.00;71.60
12761;DHT22;6444;49.742;6.114;2023-07-13T14:26:12;26.40;72.50
12761;DHT22;6444;49.742;6.114;2023-07-13T14:28:38;26.20;72.30
12761;DHT22;6444;49.742;6.114;2023-07-13T14:31:04;26.00;73.40
12761;DHT22;6444;49.742;6.114;2023-07-13T14:33:31;26.00;72.80
12761;DHT22;6444;49.742;6.114;2023-07-13T14:35:58;26.80;70.80
12761;DHT22;6444;49.742;6.114;2023-07-13T14:38:24;26.80;71.30
12761;DHT22;6444;49.742;6.114;2023-07-13T14:40:51;27.50;69.30
12761;DHT22;6444;49.742;6.114;2023-07-13T14:43:18;27.00;70.90
12761;DHT22;6444;49.742;6.114;2023-07-13T14:45:48;27.00;70.90
12761;DHT22;6444;49.742;6.114;2023-07-13T14:48:23;26.40;72.00
12761;DHT22;6444;49.742;6.114;2023-07-13T14:50:54;26.40;72.70
12761;DHT22;6444;49.742;6.114;2023-07-13T14:53:19;26.40;72.70
12761;DHT22;6444;49.742;6.114;2023-07-13T14:55:46;25.50;72.60
12761;DHT22;6444;49.742;6.114;2023-07-13T14:58:13;26.20;71.80
12761;DHT22;6444;49.742;6.114;2023-07-13T15:00:39;26.60;72.20
12761;DHT22;6444;49.742;6.114;2023-07-13T15:03:08;27.10;71.60
12761;DHT22;6444;49.742;6.114;2023-07-13T15:05:36;27.70;69.70
12761;DHT22;6444;49.742;6.114;2023-07-13T15:08:04;27.60;68.90
12761;DHT22;6444;49.742;6.114;2023-07-13T15:10:30;27.10;69.50
12761;DHT22;6444;49.742;6.114;2023-07-13T15:13:13;26.00;71.10
12761;DHT22;6444;49.742;6.114;2023-07-13T15:15:25;26.50;72.30
12761;DHT22;6444;49.742;6.114;2023-07-13T15:17:52;26.70;69.80
12761;DHT22;6444;49.742;6.114;2023-07-13T15:20:21;25.80;71.30
12761;DHT22;6444;49.742;6.114;2023-07-13T15:22:46;25.80;71.20
12761;DHT22;6444;49.742;6.114;2023-07-13T15:25:19;25.50;73.10
12761;DHT22;6444;49.742;6.114;2023-07-13T15:27:44;25.40;74.70
12761;DHT22;6444;49.742;6.114;2023-07-13T15:30:11;26.00;74.00
12761;DHT22;6444;49.742;6.114;2023-07-13T15:32:38;26.40;71.60
12761;DHT22;6444;49.742;6.114;2023-07-13T15:35:05;26.80;71.10
12761;DHT22;6444;49.742;6.114;2023-07-13T15:37:31;27.40;71.10
12761;DHT22;6444;49.742;6.114;2023-07-13T15:39:58;28.10;70.70
12761;DHT22;6444;49.742;6.114;2023-07-13T15:42:24;27.90;71.60
12761;DHT22;6444;49.742;6.114;2023-07-13T15:44:51;27.80;69.20
12761;DHT22;6444;49.742;6.114;2023-07-13T15:47:18;27.50;71.00
12761;DHT22;6444;49.742;6.114;2023-07-13T15:49:44;27.20;70.00
12761;DHT22;6444;49.742;6.114;2023-07-13T15:52:23;26.90;70.70
12761;DHT22;6444;49.742;6.114;2023-07-13T15:54:46;26.60;72.50
12761;DHT22;6444;49.742;6.114;2023-07-13T15:57:14;26.00;73.70
12761;DHT22;6444;49.742;6.114;2023-07-13T15:59:41;26.00;73.70
12761;DHT22;6444;49.742;6.114;2023-07-13T16:02:19;25.60;74.10
12761;DHT22;6444;49.742;6.114;2023-07-13T16:04:46;25.80;74.30
12761;DHT22;6444;49.742;6.114;2023-07-13T16:07:13;26.10;73.90
12761;DHT22;6444;49.742;6.114;2023-07-13T16:09:39;26.60;73.20
12761;DHT22;6444;49.742;6.114;2023-07-13T16:12:12;27.50;72.00
12761;DHT22;6444;49.742;6.114;2023-07-13T16:14:38;27.70;70.90
12761;DHT22;6444;49.742;6.114;2023-07-13T16:17:05;26.70;71.10